Time;durP1;ratioP1;P1;durP2;ratioP2;P2;SDS_P1;SDS_P2;PMS_P1;PMS_P2;Temp;Humidity;BMP_temperature;BMP_pressure;BME280_temperature;BME280_humidity;BME280_pressure;Samples;Min_cycle;Max_cycle;Signal;HPM_P1;HPM_P2
2022/04/09 00:01:37;;;;;;;9.15;1.92;;;4.40;99.90;;;;;;4995458;28;20041;-80
2022/04/09 00:04:03;;;;;;;5.72;1.60;;;4.10;99.90;;;;;;4979889;28;20095;-80
2022/04/09 00:06:28;;;;;;;5.57;2.00;;;4.20;99.90;;;;;;4981838;28;20073;-80
2022/04/09 00:08:54;;;;;;;7.97;1.90;;;5.00;99.90;;;;;;5004894;28;20033;-83
2022/04/09 00:11:20;;;;;;;7.20;1.52;;;4.10;99.90;;;;;;5001139;28;20040;-83
2022/04/09 00:13:46;;;;;;;7.93;1.92;;;4.00;99.90;;;;;;5005404;28;20053;-83
2022/04/09 00:16:12;;;;;;;5.50;2.08;;;4.00;99.90;;;;;;4981959;28;20034;-83
2022/04/09 00:18:37;;;;;;;7.00;1.98;;;4.50;99.90;;;;;;4996968;28;20034;-83
2022/04/09 00:21:03;;;;;;;8.55;2.13;;;3.80;99.90;;;;;;4981897;28;20045;-83
2022/04/09 00:23:29;;;;;;;8.98;2.38;;;3.80;99.90;;;;;;5026245;28;20044;-82
2022/04/09 00:25:55;;;;;;;8.15;2.08;;;4.60;99.90;;;;;;5013786;28;20051;-83
2022/04/09 00:28:20;;;;;;;12.60;1.95;;;3.80;99.90;;;;;;4982468;28;20034;-83
2022/04/09 00:30:46;;;;;;;12.07;2.28;;;3.80;99.90;;;;;;4981344;28;20053;-83
2022/04/09 00:33:12;;;;;;;9.43;2.58;;;3.80;99.90;;;;;;5011788;28;20038;-83
2022/04/09 00:35:38;;;;;;;10.88;2.25;;;3.80;99.90;;;;;;4999848;28;20041;-83
2022/04/09 00:38:04;;;;;;;10.82;2.50;;;3.90;99.90;;;;;;4997956;28;20378;-83
2022/04/09 00:40:29;;;;;;;7.47;2.30;;;3.90;99.90;;;;;;4983296;28;20129;-83
2022/04/09 00:42:55;;;;;;;9.38;2.45;;;3.90;99.90;;;;;;5002246;28;20037;-79
2022/04/09 00:45:21;;;;;;;8.77;2.20;;;3.90;99.90;;;;;;5017369;28;20687;-79
2022/04/09 00:47:47;;;;;;;14.65;2.80;;;4.00;99.90;;;;;;5018680;28;20034;-79
2022/04/09 00:50:13;;;;;;;9.77;2.25;;;4.00;99.90;;;;;;5015527;28;20070;-79
2022/04/09 00:52:48;;;;;;;15.48;2.58;;;4.10;99.90;;;;;;4997513;28;20484;-79
2022/04/09 00:55:16;;;;;;;9.27;2.50;;;4.00;99.90;;;;;;5004343;28;20042;-79
2022/04/09 00:57:46;;;;;;;8.48;2.33;;;4.10;99.90;;;;;;5019593;28;20096;-79
2022/04/09 01:00:13;;;;;;;11.35;2.47;;;4.30;99.90;;;;;;4997731;28;20113;-80
2022/04/09 01:02:41;;;;;;;8.45;2.08;;;4.30;99.90;;;;;;4998601;28;20137;-80
2022/04/09 01:05:07;;;;;;;9.30;1.88;;;4.50;99.90;;;;;;5013831;28;20057;-80
2022/04/09 01:07:34;;;;;;;6.30;2.00;;;4.30;99.90;;;;;;5001920;28;20053;-80
2022/04/09 01:10:04;;;;;;;10.52;1.83;;;4.30;99.90;;;;;;4998915;28;20129;-80
2022/04/09 01:12:31;;;;;;;9.48;1.52;;;4.20;99.90;;;;;;5003697;28;20088;-80
2022/04/09 01:14:56;;;;;;;5.07;1.48;;;4.30;99.90;;;;;;5025740;28;20439;-80
2022/04/09 01:17:22;;;;;;;4.97;1.58;;;4.50;99.90;;;;;;5008599;23;20108;-83
2022/04/09 01:19:48;;;;;;;4.80;1.38;;;4.10;99.90;;;;;;5003887;28;20039;-83
2022/04/09 01:22:14;;;;;;;4.00;1.17;;;4.00;99.90;;;;;;5001619;28;20078;-83
2022/04/09 01:24:39;;;;;;;9.30;2.50;;;4.20;99.90;;;;;;4988343;28;20049;-83
2022/04/09 01:27:05;;;;;;;3.92;1.48;;;3.90;99.90;;;;;;4988440;28;20484;-83
2022/04/09 01:29:31;;;;;;;8.20;1.50;;;3.80;99.90;;;;;;5003662;28;20384;-83
2022/04/09 01:31:56;;;;;;;5.68;1.60;;;3.80;99.90;;;;;;5006614;28;20033;-83
2022/04/09 01:34:22;;;;;;;5.32;1.40;;;3.70;99.90;;;;;;4988663;28;20087;-83
2022/04/09 01:36:48;;;;;;;6.13;1.65;;;3.60;99.90;;;;;;4986650;28;20380;-83
2022/04/09 01:39:17;;;;;;;6.40;1.75;;;3.60;99.90;;;;;;4999934;28;20910;-83
2022/04/09 01:41:44;;;;;;;10.82;1.40;;;3.60;99.90;;;;;;4983627;28;20034;-83
2022/04/09 01:44:10;;;;;;;8.23;1.75;;;3.40;99.90;;;;;;4984340;28;20396;-83
2022/04/09 01:46:35;;;;;;;6.87;1.63;;;3.40;99.90;;;;;;4989994;28;20034;-83
2022/04/09 01:49:02;;;;;;;14.97;1.83;;;3.30;99.90;;;;;;5003560;28;20037;-81
2022/04/09 01:51:28;;;;;;;7.50;1.60;;;3.30;99.90;;;;;;5006697;28;20045;-81
2022/04/09 01:53:53;;;;;;;11.57;2.20;;;3.30;99.90;;;;;;5002713;28;20038;-81
2022/04/09 01:56:20;;;;;;;12.47;2.10;;;3.40;99.90;;;;;;4988681;28;20035;-81
2022/04/09 01:58:45;;;;;;;6.70;2.07;;;3.40;99.90;;;;;;5005233;28;20128;-81
2022/04/09 02:01:15;;;;;;;7.53;1.53;;;3.30;99.90;;;;;;4985109;28;20153;-81
2022/04/09 02:03:41;;;;;;;11.27;1.97;;;3.30;99.90;;;;;;4984553;28;20062;-81
2022/04/09 02:06:06;;;;;;;9.10;2.00;;;3.40;99.90;;;;;;5000172;28;20069;-81
2022/04/09 02:08:32;;;;;;;9.03;1.77;;;3.20;99.90;;;;;;4986248;28;20030;-80
2022/04/09 02:10:58;;;;;;;5.82;1.80;;;3.20;99.90;;;;;;5006332;28;20046;-80
2022/04/09 02:13:24;;;;;;;11.67;2.03;;;3.10;99.90;;;;;;5024487;28;20481;-80
2022/04/09 02:15:50;;;;;;;9.93;2.13;;;3.10;99.90;;;;;;4979909;28;20060;-80
2022/04/09 02:18:16;;;;;;;9.50;2.03;;;3.20;99.90;;;;;;4989001;28;20053;-80
2022/04/09 02:20:41;;;;;;;9.93;2.27;;;3.10;99.90;;;;;;4988291;28;20464;-80
2022/04/09 02:23:07;;;;;;;6.80;1.97;;;3.20;99.90;;;;;;4979205;28;20127;-80
2022/04/09 02:25:33;;;;;;;8.50;2.00;;;3.30;99.90;;;;;;5018750;28;20034;-80
2022/04/09 02:27:59;;;;;;;14.00;2.55;;;3.30;99.90;;;;;;5012809;28;20554;-81
2022/04/09 02:30:24;;;;;;;12.13;1.83;;;3.40;99.90;;;;;;4999096;28;20072;-81
2022/04/09 02:32:51;;;;;;;13.67;2.30;;;4.10;99.90;;;;;;5013644;28;20045;-81
2022/04/09 02:35:18;;;;;;;9.27;2.00;;;3.30;99.90;;;;;;5010922;28;20033;-81
2022/04/09 02:37:44;;;;;;;10.87;1.93;;;3.40;99.90;;;;;;5007902;28;20053;-81
2022/04/09 02:40:11;;;;;;;9.00;2.13;;;3.40;99.90;;;;;;4998589;28;20042;-81
2022/04/09 02:42:38;;;;;;;17.03;2.40;;;3.40;99.90;;;;;;5003666;28;20061;-81
2022/04/09 02:45:05;;;;;;;11.75;2.13;;;3.30;99.90;;;;;;4985151;28;20042;-81
2022/04/09 02:47:32;;;;;;;10.67;1.90;;;3.40;99.90;;;;;;5006315;28;20491;-81
2022/04/09 02:50:03;;;;;;;7.77;1.63;;;1.80;99.90;;;;;;5010871;28;20052;-81
2022/04/09 02:52:40;;;;;;;5.73;1.87;;;3.80;99.90;;;;;;5009402;28;20056;-81
2022/04/09 02:55:07;;;;;;;8.67;1.77;;;3.40;99.90;;;;;;5004493;28;20082;-81
2022/04/09 02:57:34;;;;;;;6.17;1.60;;;3.30;99.90;;;;;;4986711;28;20088;-81
2022/04/09 03:00:00;;;;;;;6.03;1.63;;;3.20;99.90;;;;;;4997781;28;20538;-81
2022/04/09 03:02:26;;;;;;;8.73;1.90;;;3.20;99.90;;;;;;5009093;28;20073;-82
2022/04/09 03:04:53;;;;;;;7.87;1.50;;;3.20;99.90;;;;;;4989524;28;20061;-81
2022/04/09 03:07:21;;;;;;;9.90;1.80;;;3.20;99.90;;;;;;5003431;28;20361;-81
2022/04/09 03:09:47;;;;;;;10.32;2.10;;;3.20;99.90;;;;;;5010245;28;20034;-81
2022/04/09 03:12:13;;;;;;;8.97;1.97;;;3.20;99.90;;;;;;5005060;28;20380;-81
2022/04/09 03:14:38;;;;;;;12.60;1.80;;;3.30;99.90;;;;;;4975852;28;20050;-80
2022/04/09 03:17:04;;;;;;;7.28;1.75;;;3.50;99.90;;;;;;4993819;28;20147;-79
2022/04/09 03:19:30;;;;;;;10.70;1.95;;;3.60;99.90;;;;;;4993116;28;20054;-79
2022/04/09 03:21:55;;;;;;;7.77;1.47;;;3.60;99.90;;;;;;4975211;28;20041;-79
2022/04/09 03:24:21;;;;;;;13.80;1.80;;;3.60;99.90;;;;;;4985164;28;20089;-79
2022/04/09 03:26:47;;;;;;;8.90;1.90;;;3.50;99.90;;;;;;5005667;28;20042;-80
2022/04/09 03:29:13;;;;;;;6.13;1.93;;;3.40;99.90;;;;;;4984739;28;20484;-80
2022/04/09 03:31:39;;;;;;;7.00;1.70;;;3.30;99.90;;;;;;5004834;28;20471;-80
2022/04/09 03:34:05;;;;;;;8.27;1.90;;;3.30;99.90;;;;;;4973336;28;20048;-80
2022/04/09 03:36:31;;;;;;;7.90;1.90;;;3.20;99.90;;;;;;4987970;28;20053;-80
2022/04/09 03:38:57;;;;;;;7.57;1.80;;;3.00;99.90;;;;;;5005105;28;20033;-80
2022/04/09 03:41:23;;;;;;;9.97;1.90;;;3.00;99.90;;;;;;5006794;28;20044;-80
2022/04/09 03:43:49;;;;;;;9.37;1.77;;;2.80;99.90;;;;;;4986015;28;20045;-80
2022/04/09 03:46:15;;;;;;;8.80;1.63;;;2.70;99.90;;;;;;4991451;28;20045;-83
2022/04/09 03:48:45;;;;;;;9.13;2.00;;;2.60;99.90;;;;;;5011753;28;20073;-83
2022/04/09 03:51:11;;;;;;;8.83;2.10;;;2.50;99.90;;;;;;4995688;28;20046;-83
2022/04/09 03:53:37;;;;;;;10.47;2.03;;;2.40;99.90;;;;;;5010881;28;20033;-83
2022/04/09 03:56:04;;;;;;;11.03;2.03;;;2.40;99.90;;;;;;4978011;28;20035;-83
2022/04/09 03:58:30;;;;;;;9.90;1.97;;;2.50;99.90;;;;;;5011782;28;20104;-82
2022/04/09 04:00:56;;;;;;;10.37;1.93;;;2.50;99.90;;;;;;4995128;28;20101;-83
2022/04/09 04:03:22;;;;;;;9.73;1.93;;;2.60;99.90;;;;;;5008764;28;20037;-82
2022/04/09 04:05:48;;;;;;;10.17;2.10;;;2.60;99.90;;;;;;4976871;28;20459;-82
2022/04/09 04:08:14;;;;;;;13.67;2.30;;;2.80;99.90;;;;;;4978130;28;20121;-82
2022/04/09 04:10:40;;;;;;;16.23;2.57;;;2.60;99.90;;;;;;5007678;28;20073;-82
2022/04/09 04:13:06;;;;;;;13.00;1.90;;;2.60;99.90;;;;;;5011624;28;20484;-82
2022/04/09 04:15:33;;;;;;;13.23;2.33;;;2.60;99.90;;;;;;4997398;28;20053;-82
2022/04/09 04:17:59;;;;;;;17.17;2.77;;;2.70;99.90;;;;;;5011326;28;20052;-82
2022/04/09 04:20:25;;;;;;;8.23;2.13;;;2.80;99.90;;;;;;4994879;28;20037;-80
2022/04/09 04:22:51;;;;;;;11.13;2.37;;;2.70;99.90;;;;;;5005507;28;20135;-80
2022/04/09 04:25:18;;;;;;;9.60;1.77;;;2.80;99.90;;;;;;4999929;28;20488;-80
2022/04/09 04:27:46;;;;;;;10.90;2.20;;;3.00;99.90;;;;;;5001179;28;20038;-80
2022/04/09 04:30:13;;;;;;;11.63;2.43;;;3.00;99.90;;;;;;4983309;28;20096;-80
2022/04/09 04:32:39;;;;;;;8.10;1.63;;;3.00;99.90;;;;;;4988069;28;20136;-80
2022/04/09 04:35:05;;;;;;;9.13;2.23;;;3.10;99.90;;;;;;5003066;28;20408;-80
2022/04/09 04:37:46;;;;;;;9.70;2.43;;;3.10;99.90;;;;;;4986389;28;20049;-80
2022/04/09 04:40:14;;;;;;;7.85;1.75;;;3.20;99.90;;;;;;4989486;28;20037;-80
2022/04/09 04:42:40;;;;;;;9.37;2.07;;;3.20;99.90;;;;;;5008552;28;20044;-80
2022/04/09 04:45:07;;;;;;;6.70;1.80;;;3.10;99.90;;;;;;4990489;28;20034;-80
2022/04/09 04:47:40;;;;;;;9.80;1.90;;;3.10;99.90;;;;;;5004692;28;20050;-80
2022/04/09 04:50:07;;;;;;;12.93;1.80;;;3.20;99.90;;;;;;4983085;28;20064;-80
2022/04/09 04:52:32;;;;;;;9.67;2.30;;;3.30;99.90;;;;;;4986792;28;20034;-82
2022/04/09 04:54:58;;;;;;;16.07;2.37;;;4.10;99.90;;;;;;4990922;28;20044;-82
2022/04/09 04:57:24;;;;;;;11.63;2.07;;;3.50;99.90;;;;;;4990631;28;20472;-82
2022/04/09 04:59:49;;;;;;;12.45;2.10;;;3.50;99.90;;;;;;4970468;28;20373;-82
2022/04/09 05:02:15;;;;;;;12.07;2.25;;;3.50;99.90;;;;;;5006484;28;20834;-82
2022/04/09 05:04:40;;;;;;;11.32;2.28;;;3.60;99.90;;;;;;5008774;28;20373;-82
2022/04/09 05:07:06;;;;;;;20.67;2.57;;;3.60;99.90;;;;;;5009784;28;20064;-82
2022/04/09 05:09:34;;;;;;;8.25;2.10;;;3.70;99.90;;;;;;4992601;28;20037;-82
2022/04/09 05:11:59;;;;;;;14.05;2.72;;;3.70;99.90;;;;;;5010215;28;20045;-82
2022/04/09 05:14:25;;;;;;;15.55;2.38;;;4.00;99.90;;;;;;4991046;28;20103;-82
2022/04/09 05:16:51;;;;;;;12.43;2.28;;;4.00;99.90;;;;;;4991558;28;20045;-82
2022/04/09 05:19:17;;;;;;;8.75;1.98;;;4.20;99.90;;;;;;5007329;28;20412;-82
2022/04/09 05:21:45;;;;;;;10.77;2.08;;;4.60;99.90;;;;;;4991000;28;20081;-82
2022/04/09 05:24:11;;;;;;;8.70;2.03;;;4.50;99.90;;;;;;5001187;28;20097;-82
2022/04/09 05:26:37;;;;;;;7.65;1.70;;;4.50;99.90;;;;;;5003247;28;20045;-83
2022/04/09 05:29:02;;;;;;;11.73;1.90;;;4.50;99.90;;;;;;4999803;28;20168;-84
2022/04/09 05:31:28;;;;;;;7.07;1.88;;;4.40;99.90;;;;;;5002940;28;20042;-83
2022/04/09 05:33:57;;;;;;;9.98;1.92;;;4.40;99.90;;;;;;4997793;28;20035;-83
2022/04/09 05:36:23;;;;;;;9.88;2.17;;;4.40;99.90;;;;;;5021922;28;20037;-84
2022/04/09 05:38:49;;;;;;;9.98;3.10;;;4.40;99.90;;;;;;5008812;28;20041;-83
2022/04/09 05:41:15;;;;;;;23.38;8.82;;;4.20;99.90;;;;;;4992065;28;20034;-83
2022/04/09 05:43:40;;;;;;;8.45;3.40;;;4.20;99.90;;;;;;4996111;28;20088;-80
2022/04/09 05:46:06;;;;;;;16.50;2.80;;;4.10;99.90;;;;;;5012415;28;20034;-80
2022/04/09 05:48:32;;;;;;;12.80;3.17;;;4.10;99.90;;;;;;5011176;28;20436;-80
2022/04/09 05:50:58;;;;;;;9.82;2.88;;;4.10;99.90;;;;;;4991411;28;20042;-80
2022/04/09 05:53:23;;;;;;;10.00;2.65;;;4.20;99.90;;;;;;5011695;28;20054;-80
2022/04/09 05:55:49;;;;;;;13.60;2.78;;;4.30;99.90;;;;;;5011601;28;20042;-81
2022/04/09 05:58:15;;;;;;;10.45;2.33;;;4.40;99.90;;;;;;4994556;28;20042;-84
2022/04/09 06:00:40;;;;;;;13.60;2.70;;;4.60;99.90;;;;;;4986943;28;20042;-84
2022/04/09 06:03:06;;;;;;;13.35;2.63;;;4.80;99.90;;;;;;5005100;28;20530;-84
2022/04/09 06:05:32;;;;;;;11.20;2.60;;;4.90;99.90;;;;;;4993090;28;20071;-84
2022/04/09 06:07:58;;;;;;;10.52;2.47;;;5.10;99.90;;;;;;5008947;28;20039;-84
2022/04/09 06:10:24;;;;;;;10.32;2.40;;;5.30;99.90;;;;;;5008429;28;20057;-84
2022/04/09 06:12:49;;;;;;;13.55;2.55;;;5.60;99.90;;;;;;4995254;28;20309;-84
2022/04/09 06:15:15;;;;;;;8.43;2.40;;;6.00;99.90;;;;;;4994732;28;20038;-81
2022/04/09 06:17:41;;;;;;;15.48;2.17;;;6.10;99.90;;;;;;5009051;28;20054;-80
2022/04/09 06:20:08;;;;;;;14.60;2.65;;;6.00;99.90;;;;;;5010606;28;20038;-80
2022/04/09 06:22:33;;;;;;;8.88;2.10;;;5.90;99.90;;;;;;4994844;28;20392;-80
2022/04/09 06:25:00;;;;;;;11.35;2.13;;;5.70;99.90;;;;;;4995943;28;20041;-80
2022/04/09 06:27:26;;;;;;;7.95;2.33;;;6.00;99.90;;;;;;5010829;28;20536;-80
2022/04/09 06:29:52;;;;;;;14.43;2.70;;;5.50;99.90;;;;;;5008823;28;20034;-80
2022/04/09 06:32:17;;;;;;;11.10;2.05;;;5.80;99.90;;;;;;4974994;28;20043;-84
2022/04/09 06:34:43;;;;;;;14.93;2.67;;;5.30;99.90;;;;;;5006255;28;20419;-84
2022/04/09 06:37:08;;;;;;;10.48;2.10;;;5.20;99.90;;;;;;5009710;28;20114;-84
2022/04/09 06:39:34;;;;;;;10.52;2.42;;;5.30;99.90;;;;;;4994216;28;20101;-84
2022/04/09 06:42:00;;;;;;;7.65;1.88;;;6.70;99.90;;;;;;5010997;28;20033;-84
2022/04/09 06:44:26;;;;;;;12.88;2.40;;;6.80;99.90;;;;;;4995104;28;20125;-85
2022/04/09 06:46:52;;;;;;;11.38;2.25;;;7.70;99.90;;;;;;4995150;28;20084;-85
2022/04/09 06:49:18;;;;;;;10.85;2.22;;;8.40;99.90;;;;;;5011251;28;21815;-82
2022/04/09 06:51:48;;;;;;;10.68;2.10;;;8.80;99.90;;;;;;5007636;28;20091;-82
2022/04/09 06:54:13;;;;;;;8.40;1.90;;;9.00;99.90;;;;;;4992179;28;20046;-82
2022/04/09 06:56:39;;;;;;;7.35;2.47;;;9.50;99.90;;;;;;5007612;28;20034;-82
2022/04/09 06:59:06;;;;;;;6.63;1.88;;;9.60;99.90;;;;;;4993588;28;20038;-82
2022/04/09 07:01:32;;;;;;;5.30;1.42;;;9.60;99.90;;;;;;5010493;28;20397;-82
2022/04/09 07:03:58;;;;;;;10.93;1.85;;;10.00;99.90;;;;;;5006103;28;20412;-82
2022/04/09 07:06:24;;;;;;;9.43;1.90;;;9.30;99.90;;;;;;5005260;28;20049;-82
2022/04/09 07:08:49;;;;;;;5.93;1.70;;;8.70;99.90;;;;;;4994484;28;20468;-82
2022/04/09 07:11:15;;;;;;;6.05;1.50;;;8.10;99.90;;;;;;5009624;28;20070;-82
2022/04/09 07:13:41;;;;;;;5.03;1.70;;;7.70;99.90;;;;;;5008870;28;20072;-82
2022/04/09 07:16:07;;;;;;;4.68;1.63;;;7.90;99.90;;;;;;4993010;28;20122;-82
2022/04/09 07:18:33;;;;;;;7.28;2.10;;;8.70;99.90;;;;;;4990764;28;20053;-82
2022/04/09 07:20:59;;;;;;;6.60;1.83;;;9.60;99.90;;;;;;4978690;28;20088;-83
2022/04/09 07:23:25;;;;;;;9.90;1.85;;;10.70;99.90;;;;;;4977928;28;20107;-85
2022/04/09 07:25:50;;;;;;;8.02;2.00;;;10.90;99.90;;;;;;4990755;28;20050;-85
2022/04/09 07:28:16;;;;;;;8.63;2.00;;;11.40;99.90;;;;;;4977654;28;20484;-85
2022/04/09 07:30:43;;;;;;;8.20;2.20;;;11.50;99.90;;;;;;5009527;28;20065;-85
2022/04/09 07:33:09;;;;;;;8.95;2.10;;;11.80;99.90;;;;;;4993229;28;20125;-85
2022/04/09 07:35:35;;;;;;;9.38;2.50;;;11.90;99.90;;;;;;5012589;28;20121;-84
2022/04/09 07:38:02;;;;;;;8.35;2.45;;;12.20;99.90;;;;;;4977852;28;20042;-85
2022/04/09 07:40:28;;;;;;;8.88;2.33;;;12.00;99.90;;;;;;4990526;28;20668;-82
2022/04/09 07:42:54;;;;;;;10.88;2.25;;;12.20;99.90;;;;;;4992159;28;20045;-82
2022/04/09 07:45:21;;;;;;;10.82;2.30;;;12.20;99.90;;;;;;4991715;28;20037;-82
2022/04/09 07:47:52;;;;;;;7.10;2.13;;;12.00;99.90;;;;;;5009459;28;20034;-82
2022/04/09 07:50:17;;;;;;;8.15;2.47;;;11.60;99.90;;;;;;4994433;28;20069;-82
2022/04/09 07:52:43;;;;;;;9.75;2.35;;;11.80;99.90;;;;;;4976073;28;20092;-82
2022/04/09 07:55:11;;;;;;;9.25;2.10;;;11.50;99.90;;;;;;4995789;28;20038;-85
2022/04/09 07:57:38;;;;;;;5.70;2.00;;;11.40;99.90;;;;;;4996265;28;20046;-85
2022/04/09 08:00:05;;;;;;;5.28;2.00;;;11.40;99.90;;;;;;5012585;28;20096;-85
2022/04/09 08:02:32;;;;;;;5.85;1.77;;;12.00;99.90;;;;;;5014244;23;20081;-85
2022/04/09 08:04:58;;;;;;;7.50;1.77;;;12.60;99.90;;;;;;4999715;28;20046;-84
2022/04/09 08:07:24;;;;;;;7.38;1.73;;;12.70;99.90;;;;;;4980098;28;21930;-84
2022/04/09 08:09:51;;;;;;;9.30;2.15;;;12.40;99.80;;;;;;4985593;28;20068;-85
2022/04/09 08:12:16;;;;;;;7.68;2.00;;;11.80;99.90;;;;;;4998949;28;20388;-82
2022/04/09 08:14:43;;;;;;;6.18;1.65;;;11.70;99.90;;;;;;4992458;28;20045;-82
2022/04/09 08:17:09;;;;;;;12.13;2.40;;;12.30;99.90;;;;;;4988488;28;20150;-82
2022/04/09 08:19:35;;;;;;;7.18;1.63;;;13.30;99.90;;;;;;5005608;28;20051;-82
2022/04/09 08:22:06;;;;;;;9.07;1.92;;;13.60;98.90;;;;;;4972351;28;20065;-82
2022/04/09 08:24:32;;;;;;;6.95;2.15;;;13.60;99.00;;;;;;5007878;28;20515;-82
2022/04/09 08:26:58;;;;;;;7.43;1.92;;;13.60;97.40;;;;;;4973449;28;20093;-82
2022/04/09 08:29:24;;;;;;;7.85;1.80;;;13.70;98.70;;;;;;5013415;28;20555;-85
2022/04/09 08:31:51;;;;;;;7.90;1.90;;;13.20;96.70;;;;;;4995284;28;20049;-85
2022/04/09 08:34:18;;;;;;;8.60;2.20;;;13.10;97.70;;;;;;5025445;28;20073;-84
2022/04/09 08:36:44;;;;;;;6.47;1.95;;;12.20;99.40;;;;;;4990686;28;20046;-85
2022/04/09 08:39:11;;;;;;;12.02;2.25;;;11.80;99.90;;;;;;4990673;28;20034;-84
2022/04/09 08:41:37;;;;;;;8.00;2.10;;;11.10;99.90;;;;;;5011181;28;20091;-85
2022/04/09 08:44:04;;;;;;;8.77;1.95;;;10.40;99.90;;;;;;4995785;28;20136;-85
2022/04/09 08:46:30;;;;;;;9.30;2.45;;;9.90;99.90;;;;;;5008763;28;20483;-81
2022/04/09 08:48:58;;;;;;;9.10;2.33;;;9.40;99.90;;;;;;4995128;28;20037;-82
2022/04/09 08:51:24;;;;;;;15.43;2.55;;;9.60;99.90;;;;;;4991584;28;20045;-82
2022/04/09 08:53:50;;;;;;;11.63;2.35;;;10.70;99.90;;;;;;4996733;28;20059;-82
2022/04/09 08:56:18;;;;;;;10.07;2.33;;;12.00;99.90;;;;;;5004004;28;20115;-83
2022/04/09 08:58:44;;;;;;;8.73;2.42;;;12.30;99.90;;;;;;4988246;28;20148;-83
2022/04/09 09:01:10;;;;;;;12.55;2.72;;;12.40;99.90;;;;;;4988357;28;20065;-82
2022/04/09 09:03:36;;;;;;;9.98;2.50;;;11.90;99.90;;;;;;4987906;28;20093;-81
2022/04/09 09:06:28;;;;;;;10.05;2.60;;;11.30;99.90;;;;;;4988297;28;20076;-82
2022/04/09 09:08:58;;;;;;;9.35;2.05;;;11.30;99.90;;;;;;5002377;28;20045;-82
2022/04/09 09:11:26;;;;;;;10.10;2.13;;;11.60;99.90;;;;;;5006135;28;20054;-82
2022/04/09 09:13:57;;;;;;;13.98;2.47;;;12.00;99.90;;;;;;5003097;28;20061;-82
2022/04/09 09:16:32;;;;;;;9.80;2.35;;;13.00;99.90;;;;;;4987758;28;20038;-82
2022/04/09 09:19:03;;;;;;;6.13;2.00;;;14.10;96.60;;;;;;4992721;28;20053;-84
2022/04/09 09:21:29;;;;;;;8.20;1.98;;;14.20;96.80;;;;;;5008665;28;20419;-84
2022/04/09 09:24:07;;;;;;;5.28;1.83;;;13.50;96.10;;;;;;5004598;28;20042;-84
2022/04/09 09:26:38;;;;;;;8.15;1.98;;;13.60;95.10;;;;;;5005379;28;20045;-84
2022/04/09 09:29:05;;;;;;;6.53;1.60;;;14.50;96.50;;;;;;4990373;28;20052;-84
2022/04/09 09:31:45;;;;;;;6.20;1.90;;;15.30;93.50;;;;;;4989422;28;20041;-84
2022/04/09 09:34:12;;;;;;;7.28;1.88;;;15.70;93.00;;;;;;5007498;28;20044;-84
2022/04/09 09:36:40;;;;;;;5.65;1.83;;;16.30;91.20;;;;;;5007885;28;20431;-81
2022/04/09 09:39:07;;;;;;;6.25;1.70;;;15.70;91.60;;;;;;5008383;28;20495;-81
2022/04/09 09:41:34;;;;;;;5.30;1.50;;;14.70;93.40;;;;;;5007436;28;20100;-81
2022/04/09 09:44:06;;;;;;;4.25;1.20;;;13.50;94.80;;;;;;4990325;28;20165;-81
2022/04/09 09:46:32;;;;;;;5.32;1.50;;;12.40;97.60;;;;;;5003060;28;20954;-81
2022/04/09 09:48:58;;;;;;;4.50;1.50;;;11.80;99.90;;;;;;5015509;28;20042;-82
2022/04/09 09:51:25;;;;;;;5.13;1.30;;;12.10;99.90;;;;;;4988861;28;20046;-85
2022/04/09 09:54:13;;;;;;;7.30;1.30;;;13.10;99.90;;;;;;5009967;28;20041;-85
2022/04/09 09:56:43;;;;;;;3.05;1.13;;;13.90;98.80;;;;;;5009486;28;20416;-85
2022/04/09 09:59:11;;;;;;;6.53;1.67;;;13.80;98.10;;;;;;4989865;28;20049;-85
2022/04/09 10:01:39;;;;;;;4.75;1.08;;;13.40;98.20;;;;;;5010077;28;20046;-84
2022/04/09 10:04:07;;;;;;;4.28;1.52;;;13.80;99.00;;;;;;5002486;28;20049;-86
2022/04/09 10:06:36;;;;;;;5.07;1.60;;;12.60;98.00;;;;;;5005716;28;20068;-86
2022/04/09 10:09:05;;;;;;;6.35;1.60;;;11.60;99.90;;;;;;5006545;28;20749;-84
2022/04/09 10:11:39;;;;;;;7.53;1.70;;;10.20;99.90;;;;;;5008040;28;20080;-84
2022/04/09 10:14:05;;;;;;;4.05;1.40;;;9.60;99.90;;;;;;4980484;28;20125;-83
2022/04/09 10:16:36;;;;;;;5.65;1.77;;;9.00;99.90;;;;;;5006550;28;20456;-84
2022/04/09 10:19:04;;;;;;;5.28;1.88;;;9.20;99.90;;;;;;4989965;28;20377;-84
2022/04/09 10:21:33;;;;;;;4.95;1.50;;;9.70;99.90;;;;;;5006983;28;20515;-84
2022/04/09 10:24:02;;;;;;;6.28;1.80;;;10.80;99.90;;;;;;4988385;28;20042;-84
2022/04/09 10:26:28;;;;;;;6.90;1.48;;;12.30;99.90;;;;;;5009447;28;20200;-85
2022/04/09 10:29:09;;;;;;;6.35;1.70;;;13.90;98.90;;;;;;4994170;28;20036;-86
2022/04/09 10:31:39;;;;;;;4.90;1.77;;;15.30;96.80;;;;;;5011940;28;20045;-85
2022/04/09 10:34:07;;;;;;;6.68;1.67;;;16.50;95.40;;;;;;5013227;28;20056;-85
2022/04/09 10:36:45;;;;;;;5.35;2.00;;;16.60;92.40;;;;;;5013585;28;20037;-85
2022/04/09 10:39:40;;;;;;;7.95;1.67;;;16.10;91.40;;;;;;5010523;28;20073;-85
2022/04/09 10:42:10;;;;;;;6.25;1.90;;;15.20;90.40;;;;;;5010802;28;20054;-85
2022/04/09 10:44:48;;;;;;;6.65;1.63;;;15.10;90.60;;;;;;5014092;28;20439;-85
2022/04/09 10:47:15;;;;;;;4.72;1.52;;;14.80;91.10;;;;;;5008132;28;20048;-85
2022/04/09 10:49:42;;;;;;;8.43;1.73;;;13.80;91.80;;;;;;5011404;28;20492;-84
2022/04/09 10:52:15;;;;;;;7.13;1.85;;;13.10;93.10;;;;;;4992593;28;20041;-85
2022/04/09 10:55:02;;;;;;;5.18;1.77;;;12.70;94.00;;;;;;5014149;28;20064;-84
2022/04/09 10:57:28;;;;;;;6.30;1.67;;;12.50;93.00;;;;;;5009854;28;20050;-84
2022/04/09 11:00:00;;;;;;;4.90;1.17;;;12.50;95.50;;;;;;4995661;28;20037;-81
2022/04/09 11:02:30;;;;;;;7.57;1.42;;;12.90;92.90;;;;;;4994981;28;20481;-81
2022/04/09 11:05:15;;;;;;;6.70;1.48;;;13.50;91.80;;;;;;4992613;28;20046;-81
2022/04/09 11:08:19;;;;;;;5.17;1.30;;;13.70;90.40;;;;;;5011732;28;20042;-81
2022/04/09 11:10:45;;;;;;;4.68;1.42;;;13.40;91.50;;;;;;5012463;28;20321;-81
2022/04/09 11:13:12;;;;;;;3.95;1.05;;;13.50;91.80;;;;;;5011937;28;20146;-82
2022/04/09 11:15:43;;;;;;;5.38;1.23;;;13.40;90.90;;;;;;4991901;28;20545;-81
2022/04/09 11:18:09;;;;;;;4.88;1.58;;;13.90;91.70;;;;;;5010482;28;20050;-81
2022/04/09 11:20:37;;;;;;;5.75;1.63;;;13.30;92.50;;;;;;4996607;28;20046;-81
2022/04/09 11:23:12;;;;;;;6.70;1.50;;;12.70;93.60;;;;;;5014030;28;20064;-81
2022/04/09 11:25:44;;;;;;;5.97;2.08;;;12.40;94.40;;;;;;4996891;28;20042;-82
2022/04/09 11:28:18;;;;;;;6.25;1.77;;;12.70;97.80;;;;;;4985851;28;20034;-81
2022/04/09 11:30:55;;;;;;;4.68;1.50;;;13.00;93.00;;;;;;4990216;28;20428;-81
2022/04/09 11:33:22;;;;;;;6.18;1.65;;;13.60;91.70;;;;;;5004195;28;20038;-81
2022/04/09 11:35:48;;;;;;;4.90;1.55;;;13.50;91.60;;;;;;4995010;28;20112;-81
2022/04/09 11:38:15;;;;;;;2.88;1.05;;;12.80;92.90;;;;;;5009781;28;20049;-81
2022/04/09 11:40:47;;;;;;;4.97;1.27;;;11.30;95.20;;;;;;4994714;28;20520;-81
2022/04/09 11:43:18;;;;;;;3.72;1.02;;;11.40;96.50;;;;;;4995777;28;20435;-81
2022/04/09 11:45:44;;;;;;;3.05;0.80;;;12.30;95.80;;;;;;5012028;28;20192;-81
2022/04/09 11:48:21;;;;;;;3.08;0.80;;;12.60;94.60;;;;;;4995648;28;20049;-81
2022/04/09 11:50:48;;;;;;;2.35;0.80;;;11.70;93.80;;;;;;5016753;28;20095;-81
2022/04/09 11:53:16;;;;;;;2.15;0.95;;;11.80;94.80;;;;;;4996833;28;20081;-81
2022/04/09 11:55:44;;;;;;;1.88;0.70;;;10.90;95.70;;;;;;5015538;28;20041;-81
2022/04/09 11:58:14;;;;;;;1.90;0.82;;;10.40;97.20;;;;;;5008955;28;20037;-81
2022/04/09 12:00:42;;;;;;;1.35;0.75;;;10.00;98.80;;;;;;5009393;28;20484;-81
2022/04/09 12:03:09;;;;;;;2.20;0.80;;;9.30;99.90;;;;;;5012550;28;20077;-81
2022/04/09 12:05:42;;;;;;;2.72;0.77;;;8.90;99.90;;;;;;5013408;28;20056;-84
2022/04/09 12:08:12;;;;;;;4.55;1.20;;;9.00;99.90;;;;;;5010127;28;20042;-84
2022/04/09 12:10:54;;;;;;;2.50;0.90;;;9.40;99.90;;;;;;5014426;28;20048;-84
2022/04/09 12:13:34;;;;;;;5.78;1.23;;;9.70;99.90;;;;;;5019141;28;20048;-84
2022/04/09 12:16:02;;;;;;;3.85;1.15;;;9.70;99.90;;;;;;5003425;28;20069;-84
2022/04/09 12:18:31;;;;;;;2.25;0.88;;;10.70;99.90;;;;;;4975371;28;20100;-84
2022/04/09 12:21:02;;;;;;;3.55;1.05;;;11.60;99.90;;;;;;4993254;28;20042;-84
2022/04/09 12:23:32;;;;;;;4.55;1.30;;;12.80;99.40;;;;;;5007001;28;20040;-83
2022/04/09 12:25:59;;;;;;;3.97;1.17;;;13.40;94.90;;;;;;5009683;28;20097;-83
2022/04/09 12:28:30;;;;;;;3.28;1.00;;;13.40;93.90;;;;;;5005409;28;20030;-83
2022/04/09 12:30:56;;;;;;;4.75;1.48;;;14.00;94.00;;;;;;4996186;28;20077;-83
2022/04/09 12:33:23;;;;;;;4.03;1.40;;;14.50;92.00;;;;;;5011951;28;20053;-83
2022/04/09 12:35:49;;;;;;;5.47;1.48;;;14.50;92.20;;;;;;5001821;28;20480;-83
2022/04/09 12:38:36;;;;;;;4.72;1.30;;;13.90;91.00;;;;;;5011985;28;20499;-83
2022/04/09 12:41:04;;;;;;;3.65;1.40;;;14.10;93.70;;;;;;4985539;28;20081;-82
2022/04/09 12:43:41;;;;;;;7.50;1.77;;;14.50;92.80;;;;;;5007209;28;20038;-83
2022/04/09 12:46:09;;;;;;;5.18;1.80;;;13.50;90.90;;;;;;5016768;28;20042;-83
2022/04/09 12:48:43;;;;;;;6.57;1.70;;;13.10;92.80;;;;;;5010769;28;20037;-82
2022/04/09 12:51:13;;;;;;;4.45;1.50;;;12.50;94.60;;;;;;5006590;28;20039;-82
2022/04/09 12:53:40;;;;;;;5.35;1.35;;;12.20;96.30;;;;;;4978271;28;20370;-83